This is the latest recevied weather packets stored in our database for station/object OK1KKY-18. If no packets are shown the sender has not sent any weather packets the latest 10 day(s).
| Time | Temp. | Humidity | Pressure | Rain* | Wind** | Luminosity | Snow |
|---|---|---|---|---|---|---|---|
| 1787843242 | 22.78° C | 50% | 1020.4 hPa | - | - | - | - |
| 1787842043 | 23.33° C | 50% | 1020.4 hPa | - | - | - | - |
| 1787841443 | 23.33° C | 49% | 1020.4 hPa | - | - | - | - |
| 1787840843 | 23.33° C | 49% | 1020.5 hPa | - | - | - | - |
| 1787840243 | 23.89° C | 48% | 1020.4 hPa | - | - | - | - |
| 1787839642 | 23.89° C | 46% | 1020.4 hPa | - | - | - | - |
| 1787839043 | 25° C | 44% | 1020.4 hPa | - | - | - | - |
| 1787838443 | 25.56° C | 43% | 1020.5 hPa | - | - | - | - |
| 1787837843 | 25° C | 43% | 1020.6 hPa | - | - | - | - |
| 1787837243 | 25° C | 43% | 1020.7 hPa | - | - | - | - |
| 1787836643 | 24.44° C | 43% | 1020.7 hPa | - | - | - | - |
| 1787836043 | 25° C | 42% | 1020.6 hPa | - | - | - | - |
| 1787835443 | 25° C | 43% | 1020.7 hPa | - | - | - | - |
| 1787834843 | 24.44° C | 43% | 1020.6 hPa | - | - | - | - |
| 1787834243 | 23.89° C | 45% | 1020.6 hPa | - | - | - | - |
| 1787833643 | 24.44° C | 44% | 1020.4 hPa | - | - | - | - |
| 1787833043 | 24.44° C | 43% | 1020.6 hPa | - | - | - | - |
| 1787832443 | 24.44° C | 44% | 1020.5 hPa | - | - | - | - |
| 1787831843 | 23.89° C | 47% | 1020.6 hPa | - | - | - | - |
| 1787831243 | 23.89° C | 47% | 1020.5 hPa | - | - | - | - |
| 1787830643 | 23.89° C | 47% | 1020.6 hPa | - | - | - | - |
| 1787830043 | 23.89° C | 47% | 1020.6 hPa | - | - | - | - |
| 1787829443 | 23.33° C | 46% | 1020.7 hPa | - | - | - | - |
| 1787828843 | 23.33° C | 46% | 1020.7 hPa | - | - | - | - |
| 1787828243 | 23.33° C | 46% | 1020.8 hPa | - | - | - | - |
* Rain since midnight (hover to see other rain measurements)
** Current wind speed in m/s (hover to see current wind gust speed)